createdAt,value
2023-02-09T00:01:30.918Z,19.00
2023-02-09T00:03:59.296Z,20.08
2023-02-09T00:06:30.053Z,18.35
2023-02-09T00:08:58.244Z,18.75
2023-02-09T00:11:42.521Z,21.08
2023-02-09T00:14:10.647Z,18.05
2023-02-09T00:16:38.654Z,19.25
2023-02-09T00:19:06.637Z,17.75
2023-02-09T00:21:36.106Z,19.60
2023-02-09T00:24:04.164Z,19.23
2023-02-09T00:26:32.407Z,19.15
2023-02-09T00:29:00.865Z,19.17
2023-02-09T00:31:28.854Z,18.10
2023-02-09T00:33:56.871Z,20.20
2023-02-09T00:36:24.799Z,22.00
2023-02-09T00:38:54.082Z,24.52
2023-02-09T00:41:42.516Z,25.58
2023-02-09T00:44:11.296Z,25.33
2023-02-09T00:46:39.473Z,23.17
2023-02-09T00:49:07.863Z,22.83
2023-02-09T00:51:35.927Z,20.00
2023-02-09T00:54:05.367Z,22.48
2023-02-09T00:56:33.348Z,21.50
2023-02-09T00:59:01.348Z,20.83
2023-02-09T01:01:29.852Z,21.35
2023-02-09T01:03:57.962Z,19.95
2023-02-09T01:06:25.980Z,21.00
2023-02-09T01:08:53.951Z,19.63
2023-02-09T01:11:28.053Z,20.17
2023-02-09T01:13:57.167Z,19.63
2023-02-09T01:16:26.005Z,19.85
2023-02-09T01:18:54.130Z,20.65
2023-02-09T01:21:23.288Z,22.13
2023-02-09T01:23:51.863Z,21.38
2023-02-09T01:26:20.554Z,21.25
2023-02-09T01:28:52.417Z,25.13
2023-02-09T01:31:23.705Z,23.30
2023-02-09T01:33:52.229Z,21.90
2023-02-09T01:36:20.233Z,22.10
2023-02-09T01:38:48.618Z,22.27
2023-02-09T01:41:16.715Z,21.17
2023-02-09T01:44:00.166Z,19.50
2023-02-09T01:46:30.476Z,23.05
2023-02-09T01:49:04.293Z,20.58
2023-02-09T01:51:36.332Z,21.73
2023-02-09T01:54:09.108Z,22.17
2023-02-09T01:56:40.457Z,21.00
2023-02-09T01:59:10.739Z,20.52
2023-02-09T02:01:39.257Z,20.98
2023-02-09T02:04:07.939Z,19.05
2023-02-09T02:06:36.048Z,19.55
2023-02-09T02:09:10.146Z,22.38
2023-02-09T02:11:39.710Z,22.13
2023-02-09T02:14:25.987Z,20.25
2023-02-09T02:17:07.375Z,21.08
2023-02-09T02:20:04.836Z,22.35
2023-02-09T02:22:52.120Z,22.95
2023-02-09T02:25:43.332Z,20.60
2023-02-09T02:28:34.224Z,21.95
2023-02-09T02:31:38.530Z,20.85
2023-02-09T02:34:12.890Z,20.13
2023-02-09T02:36:52.289Z,20.63
2023-02-09T02:39:27.178Z,21.92
2023-02-09T02:42:18.328Z,21.17
2023-02-09T02:44:54.080Z,23.75
2023-02-09T02:47:24.916Z,22.70
2023-02-09T02:49:58.809Z,22.70
2023-02-09T02:55:01.996Z,21.60
2023-02-09T02:57:34.801Z,22.70
2023-02-09T03:00:07.842Z,21.05
2023-02-09T03:02:41.239Z,22.35
2023-02-09T03:05:11.431Z,21.52
2023-02-09T03:07:39.447Z,22.73
2023-02-09T03:10:26.841Z,22.52
2023-02-09T03:13:08.122Z,21.30
2023-02-09T03:15:45.831Z,22.83
2023-02-09T03:18:24.421Z,22.50
2023-02-09T03:20:58.109Z,23.55
2023-02-09T03:23:33.936Z,19.83
2023-02-09T03:26:10.639Z,22.55
2023-02-09T03:28:42.553Z,22.80
2023-02-09T03:31:10.942Z,23.38
2023-02-09T03:33:40.535Z,20.33
2023-02-09T03:36:16.396Z,22.13
2023-02-09T03:38:44.361Z,23.08
2023-02-09T03:41:12.648Z,22.33
2023-02-09T03:43:57.986Z,23.85
2023-02-09T03:46:25.999Z,23.98
2023-02-09T03:48:54.013Z,23.25
2023-02-09T03:51:23.335Z,22.85
2023-02-09T03:53:51.314Z,22.27
2023-02-09T03:56:19.219Z,22.83
2023-02-09T03:58:47.209Z,23.20
2023-02-09T04:01:15.208Z,22.25
2023-02-09T04:03:43.280Z,20.40
2023-02-09T04:06:11.236Z,22.38
2023-02-09T04:08:43.202Z,22.17
2023-02-09T04:11:11.428Z,22.75
2023-02-09T04:13:39.379Z,23.30
2023-02-09T04:16:07.904Z,21.17
2023-02-09T04:18:36.086Z,23.35
2023-02-09T04:21:04.134Z,23.25
2023-02-09T04:23:32.071Z,21.83
2023-02-09T04:26:01.442Z,23.30
2023-02-09T04:28:29.453Z,23.05
2023-02-09T04:30:58.318Z,21.40
2023-02-09T04:33:26.862Z,21.77
2023-02-09T04:35:54.809Z,22.23
2023-02-09T04:38:23.508Z,25.30
2023-02-09T04:40:54.848Z,22.88
2023-02-09T04:43:24.370Z,24.67
2023-02-09T04:45:52.471Z,22.48
2023-02-09T04:48:22.610Z,21.73
2023-02-09T04:50:51.337Z,24.15
2023-02-09T04:53:19.778Z,21.95
2023-02-09T04:55:48.836Z,21.15
2023-02-09T04:58:36.302Z,24.63
2023-02-09T05:01:06.684Z,21.88
2023-02-09T05:03:34.913Z,21.20
2023-02-09T05:06:05.401Z,21.52
2023-02-09T05:08:33.735Z,23.48
2023-02-09T05:11:01.806Z,24.30
2023-02-09T05:13:29.810Z,23.35
2023-02-09T05:15:57.932Z,23.52
2023-02-09T05:18:27.360Z,24.60
2023-02-09T05:20:55.263Z,24.40
2023-02-09T05:23:23.197Z,25.05
2023-02-09T05:25:51.114Z,23.40
2023-02-09T05:28:19.116Z,24.17
2023-02-09T05:30:53.640Z,24.02
2023-02-09T05:33:21.947Z,24.25
2023-02-09T05:35:52.325Z,24.15
2023-02-09T05:38:20.413Z,22.45
2023-02-09T05:40:48.800Z,23.08
2023-02-09T05:43:16.975Z,23.17
2023-02-09T05:45:44.920Z,24.38
2023-02-09T05:48:12.865Z,25.38
2023-02-09T05:50:41.184Z,24.15
2023-02-09T05:53:10.767Z,26.63
2023-02-09T05:55:38.733Z,24.00
2023-02-09T05:58:06.808Z,22.60
2023-02-09T06:00:34.708Z,24.20
2023-02-09T06:03:03.196Z,24.38
2023-02-09T06:05:31.130Z,27.55
2023-02-09T06:07:59.148Z,25.63
2023-02-09T06:10:28.472Z,23.73
2023-02-09T06:12:56.392Z,26.38
2023-02-09T06:15:24.376Z,25.58
2023-02-09T06:17:52.367Z,25.38
2023-02-09T06:20:20.432Z,27.25
2023-02-09T06:22:48.350Z,27.50
2023-02-09T06:25:16.576Z,28.08
2023-02-09T06:27:45.986Z,28.38
2023-02-09T06:30:14.757Z,27.08
2023-02-09T06:32:44.633Z,25.10
2023-02-09T06:35:12.535Z,24.88
2023-02-09T06:37:40.510Z,25.67
2023-02-09T06:40:08.938Z,23.42
2023-02-09T06:42:44.787Z,24.48
2023-02-09T06:45:15.050Z,22.55
2023-02-09T06:47:43.350Z,26.08
2023-02-09T06:50:12.395Z,23.30
2023-02-09T06:52:40.710Z,25.40
2023-02-09T06:55:09.253Z,22.80
2023-02-09T06:57:37.437Z,24.38
2023-02-09T07:00:08.416Z,21.42
2023-02-09T07:02:42.503Z,24.40
2023-02-09T07:05:11.157Z,25.50
2023-02-09T07:07:39.993Z,29.92
2023-02-09T07:10:09.142Z,26.65
2023-02-09T07:12:37.995Z,24.88
2023-02-09T07:15:07.822Z,25.30
2023-02-09T07:17:37.150Z,29.23
2023-02-09T07:20:06.012Z,28.27
2023-02-09T07:22:34.664Z,29.70
2023-02-09T07:25:02.536Z,27.25
2023-02-09T07:27:30.481Z,28.35
2023-02-09T07:30:00.750Z,30.10
2023-02-09T07:32:28.955Z,31.65
2023-02-09T07:34:58.267Z,35.33
2023-02-09T07:37:27.240Z,33.90
2023-02-09T07:39:55.343Z,38.58
2023-02-09T07:42:23.561Z,35.85
2023-02-09T07:44:51.535Z,34.30
2023-02-09T07:47:19.518Z,33.47
2023-02-09T07:49:47.445Z,31.90
2023-02-09T07:52:16.835Z,33.30
2023-02-09T07:54:45.074Z,33.20
2023-02-09T07:57:14.488Z,27.70
2023-02-09T07:59:42.443Z,23.55
2023-02-09T08:02:19.772Z,27.98
2023-02-09T08:04:47.995Z,32.25
2023-02-09T08:07:17.990Z,23.52
2023-02-09T08:09:46.610Z,22.25
2023-02-09T08:12:15.085Z,33.65
2023-02-09T08:14:48.559Z,33.53
2023-02-09T08:17:24.396Z,27.60
2023-02-09T08:19:55.685Z,22.45
2023-02-09T08:22:29.594Z,34.83
2023-02-09T08:24:58.268Z,27.85
2023-02-09T08:27:26.373Z,29.67
2023-02-09T08:29:54.436Z,34.75
2023-02-09T08:32:23.156Z,27.20
2023-02-09T08:34:51.095Z,24.50
2023-02-09T08:37:19.100Z,40.25
2023-02-09T08:39:48.698Z,85.82
2023-02-09T08:42:16.657Z,30.75
2023-02-09T08:44:44.571Z,44.85
2023-02-09T08:47:12.484Z,38.15
2023-02-09T08:49:41.576Z,44.47
2023-02-09T08:52:09.876Z,35.88
2023-02-09T08:54:38.037Z,33.92
2023-02-09T08:57:07.404Z,39.58
2023-02-09T08:59:35.453Z,39.33
2023-02-09T09:02:03.393Z,31.88
2023-02-09T09:04:31.463Z,37.92
2023-02-09T09:06:59.467Z,37.15
2023-02-09T09:09:27.439Z,31.48
2023-02-09T09:11:55.408Z,33.88
2023-02-09T09:14:26.662Z,35.45
2023-02-09T09:16:54.691Z,31.40
2023-02-09T09:19:22.651Z,31.80
2023-02-09T09:21:50.620Z,37.38
2023-02-09T09:24:18.558Z,36.28
2023-02-09T09:26:46.485Z,25.02
2023-02-09T09:29:14.446Z,35.30
2023-02-09T09:31:43.792Z,33.40
2023-02-09T09:34:11.771Z,33.92
2023-02-09T09:36:39.791Z,31.60
2023-02-09T09:39:07.938Z,40.03
2023-02-09T09:41:38.200Z,44.70
2023-02-09T09:44:15.082Z,30.17
2023-02-09T09:46:47.170Z,38.90
2023-02-09T09:49:23.075Z,27.58
2023-02-09T09:51:55.145Z,24.45
2023-02-09T09:54:25.922Z,32.58
2023-02-09T09:56:55.783Z,36.28
2023-02-09T09:59:27.214Z,30.05
2023-02-09T10:01:57.461Z,37.10
2023-02-09T10:04:25.567Z,30.80
2023-02-09T10:07:00.624Z,24.67
2023-02-09T10:09:39.060Z,38.08
2023-02-09T10:12:19.013Z,39.78
2023-02-09T10:14:46.949Z,37.05
2023-02-09T10:17:16.274Z,35.90
2023-02-09T10:19:44.250Z,30.40
2023-02-09T10:22:13.679Z,41.72
2023-02-09T10:24:42.146Z,31.55
2023-02-09T10:27:15.792Z,35.08
2023-02-09T10:29:43.718Z,36.58
2023-02-09T10:32:20.085Z,36.53
2023-02-09T10:34:50.687Z,34.25
2023-02-09T10:37:25.150Z,39.20
2023-02-09T10:40:07.038Z,32.38
2023-02-09T10:42:36.757Z,27.25
2023-02-09T10:45:15.063Z,32.95
2023-02-09T10:47:57.350Z,31.05
2023-02-09T10:50:25.282Z,33.22
2023-02-09T10:53:00.277Z,34.65
2023-02-09T10:55:35.545Z,29.13
2023-02-09T10:58:19.852Z,32.65
2023-02-09T11:00:53.241Z,35.95
2023-02-09T11:03:25.399Z,27.75
2023-02-09T11:06:02.909Z,31.38
2023-02-09T11:08:42.846Z,31.65
2023-02-09T11:11:32.161Z,34.05
2023-02-09T11:14:00.986Z,23.63
2023-02-09T11:16:58.628Z,28.55
2023-02-09T11:19:49.821Z,42.58
2023-02-09T11:22:28.966Z,40.88
2023-02-09T11:25:06.185Z,29.80
2023-02-09T11:27:49.169Z,38.58
2023-02-09T11:30:27.952Z,26.98
2023-02-09T11:33:00.668Z,41.97
2023-02-09T11:35:42.089Z,29.13
2023-02-09T11:38:16.097Z,36.65
2023-02-09T11:40:49.155Z,40.03
2023-02-09T11:43:22.796Z,40.50
2023-02-09T11:45:52.132Z,40.40
2023-02-09T11:48:26.051Z,48.15
2023-02-09T11:53:36.938Z,28.23
2023-02-09T11:56:07.163Z,37.10
2023-02-09T11:58:44.102Z,33.90
2023-02-09T12:01:26.778Z,40.55
2023-02-09T12:04:07.301Z,34.58
2023-02-09T12:06:39.940Z,36.53
2023-02-09T12:09:28.452Z,40.08
2023-02-09T12:12:06.833Z,34.55
2023-02-09T12:14:58.475Z,32.15
2023-02-09T12:17:34.770Z,32.95
2023-02-09T12:20:03.949Z,28.88
2023-02-09T12:22:46.824Z,31.80
2023-02-09T12:25:23.324Z,20.23
2023-02-09T12:28:35.995Z,21.48
2023-02-09T12:31:08.101Z,20.85
2023-02-09T12:33:37.777Z,21.25
2023-02-09T12:36:27.255Z,20.13
2023-02-09T12:39:24.198Z,20.88
2023-02-09T12:42:27.178Z,21.90
2023-02-09T12:45:00.667Z,23.50
2023-02-09T12:47:56.812Z,18.95
2023-02-09T12:50:32.899Z,19.98
2023-02-09T12:53:46.985Z,19.48
2023-02-09T12:56:29.895Z,20.75
2023-02-09T12:59:15.350Z,19.83
2023-02-09T13:02:20.695Z,21.05
2023-02-09T13:05:01.673Z,19.80
2023-02-09T13:07:41.274Z,18.05
2023-02-09T13:10:21.877Z,21.42
2023-02-09T13:12:56.955Z,22.23
2023-02-09T13:15:29.209Z,22.67
2023-02-09T13:18:08.367Z,20.20
2023-02-09T13:21:03.096Z,23.45
2023-02-09T13:23:35.393Z,24.55
2023-02-09T13:26:18.815Z,24.88
2023-02-09T13:28:48.182Z,24.45
2023-02-09T13:31:27.316Z,24.48
2023-02-09T13:34:02.466Z,19.52
2023-02-09T13:36:37.145Z,21.75
2023-02-09T13:39:08.836Z,20.77
2023-02-09T13:41:39.102Z,20.77
2023-02-09T13:44:22.721Z,23.55
2023-02-09T13:46:58.615Z,24.42
2023-02-09T13:49:28.555Z,34.75
2023-02-09T13:52:16.427Z,26.65
2023-02-09T13:54:45.255Z,23.90
2023-02-09T13:57:32.006Z,23.63
2023-02-09T14:00:09.532Z,23.33
2023-02-09T14:02:39.161Z,24.15
2023-02-09T14:05:09.247Z,21.88
2023-02-09T14:07:39.071Z,19.70
2023-02-09T14:10:14.134Z,19.13
2023-02-09T14:12:56.944Z,18.90
2023-02-09T14:15:49.476Z,20.42
2023-02-09T14:18:46.046Z,20.00
2023-02-09T14:21:23.474Z,20.50
2023-02-09T14:24:13.055Z,19.05
2023-02-09T14:26:45.562Z,19.98
2023-02-09T14:29:18.224Z,19.30
2023-02-09T14:31:50.466Z,21.63
2023-02-09T14:34:25.014Z,21.48
2023-02-09T14:36:54.761Z,20.55
2023-02-09T14:39:23.413Z,18.88
2023-02-09T14:42:02.848Z,18.30
2023-02-09T14:44:31.501Z,19.27
2023-02-09T14:47:02.018Z,17.38
2023-02-09T14:49:30.615Z,19.38
2023-02-09T14:52:03.436Z,17.27
2023-02-09T14:54:34.051Z,16.30
2023-02-09T14:57:03.870Z,18.08
2023-02-09T14:59:32.425Z,17.15
2023-02-09T15:02:01.821Z,16.38
2023-02-09T15:04:29.801Z,15.27
2023-02-09T15:07:04.296Z,17.20
2023-02-09T15:09:37.648Z,17.77
2023-02-09T15:12:06.467Z,17.13
2023-02-09T15:14:43.235Z,17.00
2023-02-09T15:17:18.272Z,20.48
2023-02-09T15:19:46.905Z,20.98
2023-02-09T15:22:16.767Z,18.40
2023-02-09T15:24:46.059Z,17.70
2023-02-09T15:27:26.983Z,15.95
2023-02-09T15:29:59.106Z,19.02
2023-02-09T15:32:29.901Z,24.20
2023-02-09T15:34:57.840Z,25.60
2023-02-09T15:37:28.525Z,23.30
2023-02-09T15:40:00.089Z,25.75
2023-02-09T15:42:45.859Z,23.67
2023-02-09T15:45:36.838Z,18.35
2023-02-09T15:48:06.648Z,17.85
2023-02-09T15:50:36.021Z,18.85
2023-02-09T15:53:05.514Z,16.75
2023-02-09T15:55:34.829Z,18.50
2023-02-09T15:58:03.276Z,18.52
2023-02-09T16:00:32.354Z,19.20
2023-02-09T16:03:01.900Z,18.48
2023-02-09T16:05:31.561Z,19.70
2023-02-09T16:08:00.373Z,19.00
2023-02-09T16:10:30.293Z,17.33
2023-02-09T16:12:58.339Z,18.60
2023-02-09T16:15:28.234Z,18.50
2023-02-09T16:17:56.211Z,18.75
2023-02-09T16:20:26.039Z,18.25
2023-02-09T16:22:57.820Z,19.95
2023-02-09T16:25:26.974Z,18.10
2023-02-09T16:27:56.553Z,17.75
2023-02-09T16:30:27.026Z,17.50
2023-02-09T16:32:55.652Z,15.30
2023-02-09T16:35:25.497Z,16.42
2023-02-09T16:37:56.388Z,16.27
2023-02-09T16:40:27.559Z,17.25
2023-02-09T16:42:56.661Z,16.45
2023-02-09T16:45:25.427Z,17.35
2023-02-09T16:47:59.149Z,16.45
2023-02-09T16:50:32.999Z,16.00
2023-02-09T16:53:05.037Z,16.17
2023-02-09T16:55:34.801Z,17.85
2023-02-09T16:58:04.644Z,17.27
2023-02-09T17:00:36.209Z,16.15
2023-02-09T17:03:14.062Z,17.10
2023-02-09T17:05:44.887Z,18.65
2023-02-09T17:08:19.314Z,15.88
2023-02-09T17:10:49.032Z,16.30
2023-02-09T17:13:20.681Z,16.38
2023-02-09T17:15:50.912Z,16.42
2023-02-09T17:18:21.678Z,16.35
2023-02-09T17:20:54.288Z,14.70
2023-02-09T17:23:26.013Z,15.85
2023-02-09T17:25:55.663Z,15.23
2023-02-09T17:28:24.548Z,15.50
2023-02-09T17:30:56.487Z,14.10
2023-02-09T17:33:26.820Z,16.23
2023-02-09T17:36:24.609Z,17.23
2023-02-09T17:38:45.749Z,15.45
2023-02-09T17:41:16.335Z,15.52
2023-02-09T17:43:44.617Z,15.52
2023-02-09T17:46:12.818Z,14.63
2023-02-09T17:48:40.776Z,14.68
2023-02-09T17:51:19.047Z,15.10
2023-02-09T17:53:48.934Z,15.48
2023-02-09T17:56:17.023Z,15.48
2023-02-09T17:58:45.578Z,15.02
2023-02-09T18:01:26.712Z,16.75
2023-02-09T18:03:55.642Z,16.45
2023-02-09T18:06:30.032Z,18.50
2023-02-09T18:08:59.350Z,18.88
2023-02-09T18:11:42.073Z,18.02
2023-02-09T18:14:12.983Z,17.08
2023-02-09T18:16:41.363Z,16.58
2023-02-09T18:19:09.676Z,15.02
2023-02-09T18:21:37.669Z,18.05
2023-02-09T18:24:07.995Z,16.10
2023-02-09T18:26:35.996Z,16.30
2023-02-09T18:29:04.015Z,17.52
2023-02-09T18:31:32.001Z,16.52
2023-02-09T18:34:00.094Z,16.25
2023-02-09T18:36:28.128Z,15.45
2023-02-09T18:38:56.281Z,14.70
2023-02-09T18:41:26.047Z,15.65
2023-02-09T18:43:54.613Z,16.38
2023-02-09T18:46:24.568Z,16.02
2023-02-09T18:48:53.109Z,15.23
2023-02-09T18:51:23.446Z,16.95
2023-02-09T18:53:51.918Z,16.10
2023-02-09T18:56:21.172Z,15.35
2023-02-09T18:58:51.323Z,14.95
2023-02-09T19:01:21.426Z,16.33
2023-02-09T19:03:50.276Z,16.55
2023-02-09T19:06:20.492Z,16.85
2023-02-09T19:08:50.330Z,17.38
2023-02-09T19:11:20.425Z,16.20
2023-02-09T19:14:08.665Z,16.13
2023-02-09T19:16:38.143Z,17.75
2023-02-09T19:19:06.116Z,17.70
2023-02-09T19:21:34.073Z,16.85
2023-02-09T19:24:02.876Z,16.40
2023-02-09T19:26:30.823Z,23.23
2023-02-09T19:28:58.858Z,24.17
2023-02-09T19:31:26.872Z,23.05
2023-02-09T19:33:57.788Z,21.25
2023-02-09T19:36:28.217Z,21.60
2023-02-09T19:38:58.821Z,20.40
2023-02-09T19:41:27.029Z,20.58
2023-02-09T19:43:56.341Z,23.42
2023-02-09T19:46:24.381Z,29.27
2023-02-09T19:48:53.907Z,27.27
2023-02-09T19:51:23.744Z,21.95
2023-02-09T19:53:52.096Z,18.92
2023-02-09T19:56:23.436Z,17.88
2023-02-09T19:58:51.972Z,15.35
2023-02-09T20:01:20.570Z,16.10
2023-02-09T20:03:49.631Z,17.25
2023-02-09T20:06:17.939Z,25.83
2023-02-09T20:08:47.293Z,26.02
2023-02-09T20:11:19.266Z,22.50
2023-02-09T20:13:51.054Z,28.30
2023-02-09T20:16:22.390Z,25.85
2023-02-09T20:18:50.985Z,24.80
2023-02-09T20:21:21.716Z,26.45
2023-02-09T20:23:54.772Z,24.60
2023-02-09T20:26:26.574Z,25.20
2023-02-09T20:28:54.686Z,25.45
2023-02-09T20:31:24.827Z,24.30
2023-02-09T20:33:53.186Z,23.02
2023-02-09T20:36:23.239Z,25.13
2023-02-09T20:38:53.977Z,24.33
2023-02-09T20:41:22.488Z,23.95
2023-02-09T20:44:07.849Z,24.15
2023-02-09T20:46:54.142Z,24.77
2023-02-09T20:49:22.268Z,24.45
2023-02-09T20:51:50.512Z,25.40
2023-02-09T20:54:19.896Z,24.98
2023-02-09T20:56:47.829Z,24.23
2023-02-09T20:59:16.633Z,23.55
2023-02-09T21:01:46.027Z,25.88
2023-02-09T21:04:14.046Z,23.88
2023-02-09T21:06:41.995Z,24.65
2023-02-09T21:09:13.188Z,23.40
2023-02-09T21:11:42.848Z,24.17
2023-02-09T21:14:21.736Z,25.30
2023-02-09T21:16:58.810Z,22.02
2023-02-09T21:19:26.880Z,25.58
2023-02-09T21:21:54.925Z,29.63
2023-02-09T21:24:23.184Z,31.10
2023-02-09T21:26:52.625Z,36.13
2023-02-09T21:29:20.620Z,32.13
2023-02-09T21:31:48.630Z,31.25
2023-02-09T21:34:17.197Z,30.30
2023-02-09T21:36:45.157Z,26.65
2023-02-09T21:39:13.718Z,26.42
2023-02-09T21:41:58.875Z,22.92
2023-02-09T21:44:28.258Z,24.25
2023-02-09T21:46:56.201Z,26.88
2023-02-09T21:49:24.213Z,26.15
2023-02-09T21:51:52.154Z,26.75
2023-02-09T21:54:20.166Z,28.25
2023-02-09T21:56:48.136Z,26.50
2023-02-09T21:59:16.085Z,26.38
2023-02-09T22:01:46.111Z,25.85
2023-02-09T22:04:17.086Z,26.38
2023-02-09T22:06:47.052Z,27.75
2023-02-09T22:09:21.103Z,27.00
2023-02-09T22:11:49.182Z,27.05
2023-02-09T22:14:18.205Z,27.42
2023-02-09T22:16:47.776Z,29.75
2023-02-09T22:19:17.309Z,32.65
2023-02-09T22:21:45.386Z,34.53
2023-02-09T22:24:17.250Z,36.67
2023-02-09T22:26:47.070Z,34.28
2023-02-09T22:29:17.141Z,37.25
2023-02-09T22:31:47.425Z,37.00
2023-02-09T22:34:17.072Z,36.30
2023-02-09T22:36:47.349Z,36.47
2023-02-09T22:39:15.387Z,31.83
2023-02-09T22:41:48.028Z,29.40
2023-02-09T22:44:17.506Z,32.28
2023-02-09T22:46:48.901Z,30.65
2023-02-09T22:49:20.130Z,28.52
2023-02-09T22:51:50.072Z,30.05
2023-02-09T22:54:20.514Z,25.88
2023-02-09T22:56:48.555Z,27.88
2023-02-09T22:59:16.943Z,25.65
2023-02-09T23:01:45.670Z,27.92
2023-02-09T23:04:13.806Z,29.80
2023-02-09T23:06:43.207Z,29.95
2023-02-09T23:09:12.727Z,32.28
2023-02-09T23:11:40.962Z,32.78
2023-02-09T23:14:11.017Z,37.47
2023-02-09T23:16:40.532Z,35.28
2023-02-09T23:19:13.141Z,40.75
2023-02-09T23:21:44.506Z,48.90
2023-02-09T23:24:13.140Z,46.72
2023-02-09T23:26:41.634Z,44.95
2023-02-09T23:29:11.243Z,42.45
2023-02-09T23:31:40.134Z,43.95
2023-02-09T23:34:08.744Z,38.33
2023-02-09T23:36:36.998Z,36.40
2023-02-09T23:39:07.860Z,38.83
2023-02-09T23:41:36.396Z,34.38
2023-02-09T23:44:04.731Z,33.30
2023-02-09T23:46:32.773Z,41.53
2023-02-09T23:49:01.392Z,41.45
2023-02-09T23:51:30.948Z,36.22
2023-02-09T23:54:00.949Z,35.80
2023-02-09T23:56:36.846Z,33.83
2023-02-09T23:59:07.006Z,33.35
